sensor_id;sensor_type;location;lat;lon;timestamp;pressure;altitude;pressure_sealevel;temperature;humidity
64614;BME280;51025;37.772;-122.432;2022-09-09T00:01:03;99936.55;;;27.08;27.44
64614;BME280;51025;37.772;-122.432;2022-09-09T00:03:40;99935.40;;;27.54;27.37
64614;BME280;51025;37.772;-122.432;2022-09-09T00:06:16;99933.29;;;27.30;27.23
64614;BME280;51025;37.772;-122.432;2022-09-09T00:08:57;99929.56;;;26.90;27.25
64614;BME280;51025;37.772;-122.432;2022-09-09T00:11:35;99923.89;;;27.68;27.27
64614;BME280;51025;37.772;-122.432;2022-09-09T00:14:12;99920.95;;;27.02;27.52
64614;BME280;51025;37.772;-122.432;2022-09-09T00:16:43;99922.71;;;26.90;27.26
64614;BME280;51025;37.772;-122.432;2022-09-09T00:19:20;99921.54;;;27.24;26.97
64614;BME280;51025;37.772;-122.432;2022-09-09T00:22:06;99912.86;;;26.75;26.54
64614;BME280;51025;37.772;-122.432;2022-09-09T00:24:41;99907.56;;;26.61;26.69
64614;BME280;51025;37.772;-122.432;2022-09-09T00:27:21;99908.26;;;27.08;26.51
64614;BME280;51025;37.772;-122.432;2022-09-09T00:29:56;99906.89;;;26.86;26.58
64614;BME280;51025;37.772;-122.432;2022-09-09T00:32:29;99901.38;;;26.97;26.38
64614;BME280;51025;37.772;-122.432;2022-09-09T00:35:03;99903.92;;;26.65;26.64
64614;BME280;51025;37.772;-122.432;2022-09-09T00:37:32;99902.88;;;27.06;26.56
64614;BME280;51025;37.772;-122.432;2022-09-09T00:40:11;99901.21;;;26.20;26.90
64614;BME280;51025;37.772;-122.432;2022-09-09T00:42:46;99894.92;;;26.68;26.66
64614;BME280;51025;37.772;-122.432;2022-09-09T00:45:38;99896.46;;;27.55;26.86
64614;BME280;51025;37.772;-122.432;2022-09-09T00:48:11;99892.48;;;27.49;26.83
64614;BME280;51025;37.772;-122.432;2022-09-09T00:50:47;99895.88;;;26.20;26.97
64614;BME280;51025;37.772;-122.432;2022-09-09T00:53:26;99892.78;;;26.67;27.41
64614;BME280;51025;37.772;-122.432;2022-09-09T00:56:09;99893.92;;;26.72;27.49
64614;BME280;51025;37.772;-122.432;2022-09-09T00:58:42;99893.83;;;26.57;27.26
64614;BME280;51025;37.772;-122.432;2022-09-09T01:01:12;99895.04;;;26.65;27.59
64614;BME280;51025;37.772;-122.432;2022-09-09T01:03:46;99892.74;;;25.94;27.54
64614;BME280;51025;37.772;-122.432;2022-09-09T01:06:21;99889.85;;;27.44;27.68
64614;BME280;51025;37.772;-122.432;2022-09-09T01:09:05;99891.55;;;26.24;27.58
64614;BME280;51025;37.772;-122.432;2022-09-09T01:11:45;99893.05;;;26.62;27.77
64614;BME280;51025;37.772;-122.432;2022-09-09T01:14:30;99893.95;;;26.62;27.75
64614;BME280;51025;37.772;-122.432;2022-09-09T01:17:04;99889.85;;;27.59;27.60
64614;BME280;51025;37.772;-122.432;2022-09-09T01:19:45;99886.37;;;26.69;27.65
64614;BME280;51025;37.772;-122.432;2022-09-09T01:22:25;99886.94;;;27.08;27.79
64614;BME280;51025;37.772;-122.432;2022-09-09T01:25:15;99883.46;;;26.19;28.02
64614;BME280;51025;37.772;-122.432;2022-09-09T01:27:48;99882.67;;;25.82;27.82
64614;BME280;51025;37.772;-122.432;2022-09-09T01:30:18;99886.02;;;26.61;27.72
64614;BME280;51025;37.772;-122.432;2022-09-09T01:32:48;99884.07;;;26.15;27.86
64614;BME280;51025;37.772;-122.432;2022-09-09T01:35:37;99884.37;;;26.88;27.96
64614;BME280;51025;37.772;-122.432;2022-09-09T01:38:08;99883.01;;;26.51;28.11
64614;BME280;51025;37.772;-122.432;2022-09-09T01:40:37;99882.10;;;26.51;27.99
64614;BME280;51025;37.772;-122.432;2022-09-09T01:43:06;99880.88;;;26.42;27.96
64614;BME280;51025;37.772;-122.432;2022-09-09T01:45:36;99879.40;;;26.39;28.13
64614;BME280;51025;37.772;-122.432;2022-09-09T01:48:05;99883.44;;;27.03;27.93
64614;BME280;51025;37.772;-122.432;2022-09-09T01:50:34;99882.53;;;26.99;27.98
64614;BME280;51025;37.772;-122.432;2022-09-09T01:53:03;99880.68;;;26.72;27.97
64614;BME280;51025;37.772;-122.432;2022-09-09T01:55:36;99882.16;;;26.31;27.91
64614;BME280;51025;37.772;-122.432;2022-09-09T01:58:16;99875.80;;;26.36;27.91
64614;BME280;51025;37.772;-122.432;2022-09-09T02:00:54;99874.22;;;25.44;28.02
64614;BME280;51025;37.772;-122.432;2022-09-09T02:03:28;99874.43;;;26.65;27.87
64614;BME280;51025;37.772;-122.432;2022-09-09T02:06:03;99871.60;;;26.37;27.85
64614;BME280;51025;37.772;-122.432;2022-09-09T02:08:42;99870.11;;;26.98;27.82
64614;BME280;51025;37.772;-122.432;2022-09-09T02:11:13;99870.11;;;26.68;27.88
64614;BME280;51025;37.772;-122.432;2022-09-09T02:13:45;99868.47;;;25.57;27.77
64614;BME280;51025;37.772;-122.432;2022-09-09T02:16:18;99868.40;;;26.30;27.92
64614;BME280;51025;37.772;-122.432;2022-09-09T02:19:02;99871.21;;;27.11;26.48
64614;BME280;51025;37.772;-122.432;2022-09-09T02:21:35;99862.73;;;26.94;26.46
64614;BME280;51025;37.772;-122.432;2022-09-09T02:24:06;99864.47;;;27.44;26.26
64614;BME280;51025;37.772;-122.432;2022-09-09T02:26:39;99861.03;;;26.52;26.26
64614;BME280;51025;37.772;-122.432;2022-09-09T02:29:11;99850.14;;;27.00;26.31
64614;BME280;51025;37.772;-122.432;2022-09-09T02:31:42;99854.48;;;26.14;26.02
64614;BME280;51025;37.772;-122.432;2022-09-09T02:34:13;99846.96;;;26.82;26.26
64614;BME280;51025;37.772;-122.432;2022-09-09T02:36:43;99845.04;;;25.54;26.27
64614;BME280;51025;37.772;-122.432;2022-09-09T02:39:13;99852.80;;;26.70;25.86
64614;BME280;51025;37.772;-122.432;2022-09-09T02:41:42;99852.25;;;26.68;25.55
64614;BME280;51025;37.772;-122.432;2022-09-09T02:44:12;99858.70;;;26.41;26.28
64614;BME280;51025;37.772;-122.432;2022-09-09T02:47:00;99856.38;;;26.21;25.41
64614;BME280;51025;37.772;-122.432;2022-09-09T02:49:43;99857.48;;;27.53;25.55
64614;BME280;51025;37.772;-122.432;2022-09-09T02:52:18;99856.04;;;26.37;26.10
64614;BME280;51025;37.772;-122.432;2022-09-09T02:54:49;99853.39;;;24.58;26.38
64614;BME280;51025;37.772;-122.432;2022-09-09T02:57:23;99851.60;;;25.99;26.42
64614;BME280;51025;37.772;-122.432;2022-09-09T02:59:53;99855.53;;;26.02;26.46
64614;BME280;51025;37.772;-122.432;2022-09-09T03:02:24;99859.61;;;25.73;26.80
64614;BME280;51025;37.772;-122.432;2022-09-09T03:04:53;99867.55;;;25.37;26.52
64614;BME280;51025;37.772;-122.432;2022-09-09T03:07:21;99866.16;;;25.76;26.76
64614;BME280;51025;37.772;-122.432;2022-09-09T03:09:50;99867.34;;;25.80;26.69
64614;BME280;51025;37.772;-122.432;2022-09-09T03:12:18;99869.23;;;26.05;26.49
64614;BME280;51025;37.772;-122.432;2022-09-09T03:14:47;99871.68;;;25.35;26.87
64614;BME280;51025;37.772;-122.432;2022-09-09T03:17:15;99877.73;;;25.40;27.27
64614;BME280;51025;37.772;-122.432;2022-09-09T03:19:43;99877.82;;;25.05;27.07
64614;BME280;51025;37.772;-122.432;2022-09-09T03:22:11;99881.86;;;25.91;27.31
64614;BME280;51025;37.772;-122.432;2022-09-09T03:24:40;99884.55;;;24.75;27.34
64614;BME280;51025;37.772;-122.432;2022-09-09T03:27:09;99887.77;;;26.24;27.27
64614;BME280;51025;37.772;-122.432;2022-09-09T03:29:38;99888.07;;;25.42;27.31
64614;BME280;51025;37.772;-122.432;2022-09-09T03:32:06;99895.65;;;25.56;27.63
64614;BME280;51025;37.772;-122.432;2022-09-09T03:34:35;99901.73;;;25.83;27.54
64614;BME280;51025;37.772;-122.432;2022-09-09T03:37:04;99899.97;;;25.72;28.00
64614;BME280;51025;37.772;-122.432;2022-09-09T03:39:33;99903.47;;;25.31;28.17
64614;BME280;51025;37.772;-122.432;2022-09-09T03:42:02;99909.82;;;25.30;27.89
64614;BME280;51025;37.772;-122.432;2022-09-09T03:44:30;99910.10;;;25.72;28.19
64614;BME280;51025;37.772;-122.432;2022-09-09T03:46:58;99910.16;;;25.68;28.08
64614;BME280;51025;37.772;-122.432;2022-09-09T03:49:27;99910.47;;;25.64;28.42
64614;BME280;51025;37.772;-122.432;2022-09-09T03:51:56;99907.01;;;25.39;28.32
64614;BME280;51025;37.772;-122.432;2022-09-09T03:54:25;99911.05;;;25.78;28.22
64614;BME280;51025;37.772;-122.432;2022-09-09T03:56:54;99911.75;;;25.35;28.37
64614;BME280;51025;37.772;-122.432;2022-09-09T03:59:22;99913.45;;;25.59;28.54
64614;BME280;51025;37.772;-122.432;2022-09-09T04:01:51;99916.65;;;24.26;28.68
64614;BME280;51025;37.772;-122.432;2022-09-09T04:04:20;99922.43;;;25.43;28.87
64614;BME280;51025;37.772;-122.432;2022-09-09T04:06:49;99923.83;;;24.63;28.96
64614;BME280;51025;37.772;-122.432;2022-09-09T04:09:17;99923.52;;;25.97;28.53
64614;BME280;51025;37.772;-122.432;2022-09-09T04:11:45;99921.85;;;24.50;28.70
64614;BME280;51025;37.772;-122.432;2022-09-09T04:14:14;99923.24;;;25.44;28.63
64614;BME280;51025;37.772;-122.432;2022-09-09T04:16:42;99924.73;;;24.68;28.31
64614;BME280;51025;37.772;-122.432;2022-09-09T04:19:11;99930.81;;;26.05;28.40
64614;BME280;51025;37.772;-122.432;2022-09-09T04:21:40;99930.15;;;24.24;28.83
64614;BME280;51025;37.772;-122.432;2022-09-09T04:24:09;99937.90;;;25.25;28.53
64614;BME280;51025;37.772;-122.432;2022-09-09T04:26:39;99942.07;;;25.18;28.59
64614;BME280;51025;37.772;-122.432;2022-09-09T04:29:08;99942.24;;;25.93;28.18
64614;BME280;51025;37.772;-122.432;2022-09-09T04:31:37;99942.73;;;25.69;28.34
64614;BME280;51025;37.772;-122.432;2022-09-09T04:34:05;99941.66;;;25.52;28.41
64614;BME280;51025;37.772;-122.432;2022-09-09T04:36:34;99946.50;;;25.78;28.33
64614;BME280;51025;37.772;-122.432;2022-09-09T04:39:03;99944.36;;;25.48;28.36
64614;BME280;51025;37.772;-122.432;2022-09-09T04:41:32;99945.20;;;25.62;28.13
64614;BME280;51025;37.772;-122.432;2022-09-09T04:44:01;99945.02;;;25.49;28.16
64614;BME280;51025;37.772;-122.432;2022-09-09T04:46:30;99946.19;;;25.98;28.01
64614;BME280;51025;37.772;-122.432;2022-09-09T04:48:58;99942.99;;;23.34;27.70
64614;BME280;51025;37.772;-122.432;2022-09-09T04:51:26;99939.45;;;25.51;27.72
64614;BME280;51025;37.772;-122.432;2022-09-09T04:53:55;99939.16;;;25.44;27.69
64614;BME280;51025;37.772;-122.432;2022-09-09T04:56:24;99940.87;;;26.12;27.81
64614;BME280;51025;37.772;-122.432;2022-09-09T04:58:53;99939.18;;;25.06;27.96
64614;BME280;51025;37.772;-122.432;2022-09-09T05:01:22;99944.99;;;25.42;27.96
64614;BME280;51025;37.772;-122.432;2022-09-09T05:03:51;99945.02;;;24.66;27.87
64614;BME280;51025;37.772;-122.432;2022-09-09T05:06:21;99946.16;;;25.40;27.89
64614;BME280;51025;37.772;-122.432;2022-09-09T05:08:50;99939.61;;;25.02;27.80
64614;BME280;51025;37.772;-122.432;2022-09-09T05:11:20;99934.09;;;25.37;27.95
64614;BME280;51025;37.772;-122.432;2022-09-09T05:13:50;99931.35;;;25.00;27.83
64614;BME280;51025;37.772;-122.432;2022-09-09T05:16:18;99926.63;;;25.37;27.84
64614;BME280;51025;37.772;-122.432;2022-09-09T05:18:47;99927.19;;;24.23;27.77
64614;BME280;51025;37.772;-122.432;2022-09-09T05:21:17;99930.60;;;26.04;27.48
64614;BME280;51025;37.772;-122.432;2022-09-09T05:23:46;99932.88;;;24.90;27.80
64614;BME280;51025;37.772;-122.432;2022-09-09T05:26:16;99933.45;;;25.21;27.90
64614;BME280;51025;37.772;-122.432;2022-09-09T05:28:45;99934.02;;;24.87;27.77
64614;BME280;51025;37.772;-122.432;2022-09-09T05:31:15;99932.48;;;25.26;27.79
64614;BME280;51025;37.772;-122.432;2022-09-09T05:33:45;99931.98;;;24.50;27.74
64614;BME280;51025;37.772;-122.432;2022-09-09T05:36:16;99933.55;;;25.37;27.60
64614;BME280;51025;37.772;-122.432;2022-09-09T05:38:45;99935.26;;;24.99;27.62
64614;BME280;51025;37.772;-122.432;2022-09-09T05:41:14;99937.25;;;25.53;27.76
64614;BME280;51025;37.772;-122.432;2022-09-09T05:43:43;99935.23;;;24.77;27.48
64614;BME280;51025;37.772;-122.432;2022-09-09T05:46:13;99935.02;;;25.27;27.66
64614;BME280;51025;37.772;-122.432;2022-09-09T05:48:45;99928.30;;;24.21;27.56
64614;BME280;51025;37.772;-122.432;2022-09-09T05:51:15;99932.40;;;24.92;27.46
64614;BME280;51025;37.772;-122.432;2022-09-09T05:53:45;99931.15;;;24.25;27.44
64614;BME280;51025;37.772;-122.432;2022-09-09T05:56:14;99934.41;;;25.34;27.52
64614;BME280;51025;37.772;-122.432;2022-09-09T05:58:43;99932.09;;;23.74;27.53
64614;BME280;51025;37.772;-122.432;2022-09-09T06:01:14;99929.54;;;25.37;27.47
64614;BME280;51025;37.772;-122.432;2022-09-09T06:03:44;99932.92;;;24.17;27.53
64614;BME280;51025;37.772;-122.432;2022-09-09T06:06:15;99937.38;;;25.66;27.49
64614;BME280;51025;37.772;-122.432;2022-09-09T06:08:44;99943.81;;;24.20;27.51
64614;BME280;51025;37.772;-122.432;2022-09-09T06:11:14;99944.00;;;25.55;27.36
64614;BME280;51025;37.772;-122.432;2022-09-09T06:13:44;99947.92;;;25.19;27.05
64614;BME280;51025;37.772;-122.432;2022-09-09T06:16:14;99944.73;;;25.53;27.43
64614;BME280;51025;37.772;-122.432;2022-09-09T06:18:43;99941.98;;;24.97;27.16
64614;BME280;51025;37.772;-122.432;2022-09-09T06:21:16;99943.40;;;26.00;27.23
64614;BME280;51025;37.772;-122.432;2022-09-09T06:23:45;99942.47;;;24.41;27.38
64614;BME280;51025;37.772;-122.432;2022-09-09T06:26:15;99944.30;;;25.95;27.25
64614;BME280;51025;37.772;-122.432;2022-09-09T06:28:44;99939.98;;;24.38;27.37
64614;BME280;51025;37.772;-122.432;2022-09-09T06:31:14;99939.89;;;25.74;27.13
64614;BME280;51025;37.772;-122.432;2022-09-09T06:33:43;99935.66;;;24.03;27.59
64614;BME280;51025;37.772;-122.432;2022-09-09T06:36:13;99928.66;;;26.41;26.87
64614;BME280;51025;37.772;-122.432;2022-09-09T06:38:42;99932.62;;;24.11;27.54
64614;BME280;51025;37.772;-122.432;2022-09-09T06:41:11;99934.71;;;25.34;27.07
64614;BME280;51025;37.772;-122.432;2022-09-09T06:43:41;99936.43;;;24.19;27.42
64614;BME280;51025;37.772;-122.432;2022-09-09T06:46:12;99947.26;;;24.84;27.43
64614;BME280;51025;37.772;-122.432;2022-09-09T06:48:42;99947.03;;;24.34;27.23
64614;BME280;51025;37.772;-122.432;2022-09-09T06:51:13;99947.70;;;25.58;27.42
64614;BME280;51025;37.772;-122.432;2022-09-09T06:53:44;99948.52;;;23.98;27.51
64614;BME280;51025;37.772;-122.432;2022-09-09T06:56:21;99946.00;;;25.49;27.46
64614;BME280;51025;37.772;-122.432;2022-09-09T06:58:50;99938.62;;;24.60;27.51
64614;BME280;51025;37.772;-122.432;2022-09-09T07:01:20;99928.33;;;24.55;27.57
64614;BME280;51025;37.772;-122.432;2022-09-09T07:03:51;99929.54;;;24.77;27.35
64614;BME280;51025;37.772;-122.432;2022-09-09T07:06:21;99924.19;;;25.36;27.48
64614;BME280;51025;37.772;-122.432;2022-09-09T07:08:51;99908.09;;;24.82;27.37
64614;BME280;51025;37.772;-122.432;2022-09-09T07:11:20;99902.90;;;24.86;27.57
64614;BME280;51025;37.772;-122.432;2022-09-09T07:13:49;99900.30;;;24.40;27.64
64614;BME280;51025;37.772;-122.432;2022-09-09T07:16:20;99894.17;;;25.16;27.59
64614;BME280;51025;37.772;-122.432;2022-09-09T07:18:49;99884.61;;;24.86;27.56
64614;BME280;51025;37.772;-122.432;2022-09-09T07:21:18;99879.54;;;25.09;27.65
64614;BME280;51025;37.772;-122.432;2022-09-09T07:23:47;99871.28;;;24.33;27.71
64614;BME280;51025;37.772;-122.432;2022-09-09T07:26:16;99871.68;;;25.63;27.31
64614;BME280;51025;37.772;-122.432;2022-09-09T07:28:45;99864.38;;;24.23;27.15
64614;BME280;51025;37.772;-122.432;2022-09-09T07:31:16;99862.32;;;25.53;27.30
64614;BME280;51025;37.772;-122.432;2022-09-09T07:33:46;99859.14;;;25.33;26.84
64614;BME280;51025;37.772;-122.432;2022-09-09T07:36:17;99856.20;;;25.45;27.34
64614;BME280;51025;37.772;-122.432;2022-09-09T07:38:47;99847.09;;;24.71;27.35
64614;BME280;51025;37.772;-122.432;2022-09-09T07:41:17;99839.01;;;25.27;27.50
64614;BME280;51025;37.772;-122.432;2022-09-09T07:43:49;99835.54;;;24.59;27.41
64614;BME280;51025;37.772;-122.432;2022-09-09T07:46:18;99826.66;;;25.35;27.43
64614;BME280;51025;37.772;-122.432;2022-09-09T07:48:49;99819.88;;;24.88;27.12
64614;BME280;51025;37.772;-122.432;2022-09-09T07:51:20;99822.08;;;24.99;27.65
64614;BME280;51025;37.772;-122.432;2022-09-09T07:53:51;99821.62;;;24.18;27.67
64614;BME280;51025;37.772;-122.432;2022-09-09T07:56:21;99817.79;;;24.91;27.65
64614;BME280;51025;37.772;-122.432;2022-09-09T07:58:50;99817.50;;;24.36;27.47
64614;BME280;51025;37.772;-122.432;2022-09-09T08:01:21;99821.89;;;25.32;27.26
64614;BME280;51025;37.772;-122.432;2022-09-09T08:03:54;99829.98;;;24.23;27.54
64614;BME280;51025;37.772;-122.432;2022-09-09T08:06:23;99840.32;;;24.93;27.57
64614;BME280;51025;37.772;-122.432;2022-09-09T08:08:52;99845.81;;;24.44;27.71
64614;BME280;51025;37.772;-122.432;2022-09-09T08:11:22;99852.08;;;24.80;27.61
64614;BME280;51025;37.772;-122.432;2022-09-09T08:13:51;99853.78;;;24.10;27.57
64614;BME280;51025;37.772;-122.432;2022-09-09T08:16:21;99840.91;;;25.14;27.34
64614;BME280;51025;37.772;-122.432;2022-09-09T08:18:51;99844.29;;;25.07;27.39
64614;BME280;51025;37.772;-122.432;2022-09-09T08:21:21;99838.40;;;24.78;27.57
64614;BME280;51025;37.772;-122.432;2022-09-09T08:23:52;99839.01;;;24.00;27.55
64614;BME280;51025;37.772;-122.432;2022-09-09T08:26:22;99837.52;;;25.27;27.16
64614;BME280;51025;37.772;-122.432;2022-09-09T08:28:52;99835.83;;;24.45;27.49
64614;BME280;51025;37.772;-122.432;2022-09-09T08:31:23;99836.93;;;24.97;27.35
64614;BME280;51025;37.772;-122.432;2022-09-09T08:33:51;99837.99;;;24.76;27.53
64614;BME280;51025;37.772;-122.432;2022-09-09T08:36:22;99838.15;;;24.86;27.44
64614;BME280;51025;37.772;-122.432;2022-09-09T08:38:52;99832.12;;;24.42;27.47
64614;BME280;51025;37.772;-122.432;2022-09-09T08:42:12;99823.10;;;25.06;27.20
64614;BME280;51025;37.772;-122.432;2022-09-09T08:44:59;99813.64;;;23.41;27.39
64614;BME280;51025;37.772;-122.432;2022-09-09T08:47:39;99807.12;;;24.65;27.54
64614;BME280;51025;37.772;-122.432;2022-09-09T08:50:20;99809.07;;;24.83;27.39
64614;BME280;51025;37.772;-122.432;2022-09-09T08:52:54;99811.30;;;24.02;27.47
64614;BME280;51025;37.772;-122.432;2022-09-09T08:55:29;99809.58;;;25.05;27.20
64614;BME280;51025;37.772;-122.432;2022-09-09T08:58:04;99809.19;;;23.94;27.43
64614;BME280;51025;37.772;-122.432;2022-09-09T09:00:44;99805.57;;;25.15;27.34
64614;BME280;51025;37.772;-122.432;2022-09-09T09:03:22;99802.45;;;24.17;27.18
64614;BME280;51025;37.772;-122.432;2022-09-09T09:06:01;99801.91;;;24.58;27.23
64614;BME280;51025;37.772;-122.432;2022-09-09T09:08:38;99792.90;;;24.95;26.86
64614;BME280;51025;37.772;-122.432;2022-09-09T09:11:10;99794.83;;;24.53;27.18
64614;BME280;51025;37.772;-122.432;2022-09-09T09:13:43;99791.91;;;24.14;27.12
64614;BME280;51025;37.772;-122.432;2022-09-09T09:16:21;99800.82;;;24.39;27.25
64614;BME280;51025;37.772;-122.432;2022-09-09T09:18:52;99794.30;;;24.31;26.96
64614;BME280;51025;37.772;-122.432;2022-09-09T09:21:29;99792.75;;;24.43;27.16
64614;BME280;51025;37.772;-122.432;2022-09-09T09:24:01;99795.61;;;24.31;26.95
64614;BME280;51025;37.772;-122.432;2022-09-09T09:26:33;99797.29;;;24.93;27.01
64614;BME280;51025;37.772;-122.432;2022-09-09T09:29:10;99798.48;;;24.38;27.14
64614;BME280;51025;37.772;-122.432;2022-09-09T09:31:41;99799.09;;;23.92;27.21
64614;BME280;51025;37.772;-122.432;2022-09-09T09:34:10;99797.34;;;24.76;27.16
64614;BME280;51025;37.772;-122.432;2022-09-09T09:36:41;99789.21;;;24.22;27.31
64614;BME280;51025;37.772;-122.432;2022-09-09T09:39:21;99790.75;;;24.41;27.43
64614;BME280;51025;37.772;-122.432;2022-09-09T09:41:50;99787.69;;;23.96;27.52
64614;BME280;51025;37.772;-122.432;2022-09-09T09:44:24;99790.58;;;24.34;27.46
64614;BME280;51025;37.772;-122.432;2022-09-09T09:47:04;99782.22;;;23.97;27.53
64614;BME280;51025;37.772;-122.432;2022-09-09T09:49:33;99774.90;;;24.20;27.60
64614;BME280;51025;37.772;-122.432;2022-09-09T09:52:02;99772.57;;;24.26;27.54
64614;BME280;51025;37.772;-122.432;2022-09-09T09:54:32;99766.89;;;24.34;27.44
64614;BME280;51025;37.772;-122.432;2022-09-09T09:57:09;99774.21;;;24.24;27.53
64614;BME280;51025;37.772;-122.432;2022-09-09T09:59:39;99774.80;;;24.19;27.57
64614;BME280;51025;37.772;-122.432;2022-09-09T10:02:16;99774.56;;;24.15;27.59
64614;BME280;51025;37.772;-122.432;2022-09-09T10:04:46;99775.45;;;22.98;27.63
64614;BME280;51025;37.772;-122.432;2022-09-09T10:07:19;99773.54;;;24.08;27.62
64614;BME280;51025;37.772;-122.432;2022-09-09T10:09:54;99773.78;;;23.36;27.58
64614;BME280;51025;37.772;-122.432;2022-09-09T10:12:33;99777.55;;;24.08;27.62
64614;BME280;51025;37.772;-122.432;2022-09-09T10:15:19;99769.78;;;24.95;27.09
64614;BME280;51025;37.772;-122.432;2022-09-09T10:17:58;99771.50;;;23.95;27.64
64614;BME280;51025;37.772;-122.432;2022-09-09T10:20:35;99772.78;;;24.03;27.54
64614;BME280;51025;37.772;-122.432;2022-09-09T10:23:16;99776.64;;;23.95;27.63
64614;BME280;51025;37.772;-122.432;2022-09-09T10:26:03;99769.06;;;23.78;27.46
64614;BME280;51025;37.772;-122.432;2022-09-09T10:28:46;99767.13;;;24.02;27.53
64614;BME280;51025;37.772;-122.432;2022-09-09T10:31:25;99762.57;;;24.75;26.91
64614;BME280;51025;37.772;-122.432;2022-09-09T10:34:03;99760.76;;;24.39;27.22
64614;BME280;51025;37.772;-122.432;2022-09-09T10:36:42;99757.49;;;23.45;27.34
64614;BME280;51025;37.772;-122.432;2022-09-09T10:39:23;99751.78;;;24.27;27.27
64614;BME280;51025;37.772;-122.432;2022-09-09T10:42:03;99747.32;;;23.90;27.28
64614;BME280;51025;37.772;-122.432;2022-09-09T10:44:46;99744.47;;;24.03;27.48
64614;BME280;51025;37.772;-122.432;2022-09-09T10:47:35;99735.61;;;24.74;27.50
64614;BME280;51025;37.772;-122.432;2022-09-09T10:50:20;99730.70;;;24.01;27.51
64614;BME280;51025;37.772;-122.432;2022-09-09T10:53:00;99729.86;;;23.84;27.36
64614;BME280;51025;37.772;-122.432;2022-09-09T10:55:38;99733.91;;;23.84;27.65
64614;BME280;51025;37.772;-122.432;2022-09-09T10:58:13;99734.53;;;23.87;27.60
64614;BME280;51025;37.772;-122.432;2022-09-09T11:00:45;99735.35;;;23.21;27.47
64614;BME280;51025;37.772;-122.432;2022-09-09T11:03:20;99735.81;;;24.14;27.66
64614;BME280;51025;37.772;-122.432;2022-09-09T11:05:53;99730.89;;;23.97;27.51
64614;BME280;51025;37.772;-122.432;2022-09-09T11:08:26;99731.11;;;24.32;27.44
64614;BME280;51025;37.772;-122.432;2022-09-09T11:11:02;99725.76;;;23.81;27.60
64614;BME280;51025;37.772;-122.432;2022-09-09T11:13:37;99727.59;;;24.32;27.48
64614;BME280;51025;37.772;-122.432;2022-09-09T11:16:19;99719.95;;;23.93;27.47
64614;BME280;51025;37.772;-122.432;2022-09-09T11:18:50;99720.02;;;22.98;27.63
64614;BME280;51025;37.772;-122.432;2022-09-09T11:21:27;99718.99;;;23.99;27.70
64614;BME280;51025;37.772;-122.432;2022-09-09T11:24:00;99714.64;;;23.58;27.72
64614;BME280;51025;37.772;-122.432;2022-09-09T11:26:33;99709.08;;;23.90;27.74
64614;BME280;51025;37.772;-122.432;2022-09-09T11:29:18;99705.93;;;24.39;27.65
64614;BME280;51025;37.772;-122.432;2022-09-09T11:32:01;99704.64;;;23.62;27.65
64614;BME280;51025;37.772;-122.432;2022-09-09T11:34:44;99705.39;;;24.63;27.47
64614;BME280;51025;37.772;-122.432;2022-09-09T11:37:32;99706.06;;;24.38;27.64
64614;BME280;51025;37.772;-122.432;2022-09-09T11:40:17;99704.09;;;23.38;27.83
64614;BME280;51025;37.772;-122.432;2022-09-09T11:42:47;99700.18;;;23.58;27.63
64614;BME280;51025;37.772;-122.432;2022-09-09T11:45:24;99698.94;;;24.25;27.68
64614;BME280;51025;37.772;-122.432;2022-09-09T11:47:54;99694.69;;;23.65;27.56
64614;BME280;51025;37.772;-122.432;2022-09-09T11:50:30;99690.38;;;23.96;27.55
64614;BME280;51025;37.772;-122.432;2022-09-09T11:53:20;99685.66;;;24.32;27.20
64614;BME280;51025;37.772;-122.432;2022-09-09T11:56:01;99686.55;;;22.66;27.64
64614;BME280;51025;37.772;-122.432;2022-09-09T11:58:35;99681.50;;;24.33;27.54
64614;BME280;51025;37.772;-122.432;2022-09-09T12:01:25;99682.08;;;23.51;27.54
64614;BME280;51025;37.772;-122.432;2022-09-09T12:04:06;99677.94;;;23.99;27.43
64614;BME280;51025;37.772;-122.432;2022-09-09T12:06:45;99668.93;;;23.67;27.64
64614;BME280;51025;37.772;-122.432;2022-09-09T12:09:22;99668.21;;;23.59;27.75
64614;BME280;51025;37.772;-122.432;2022-09-09T12:11:51;99672.75;;;23.37;27.59
64614;BME280;51025;37.772;-122.432;2022-09-09T12:14:22;99674.53;;;23.89;27.46
64614;BME280;51025;37.772;-122.432;2022-09-09T12:16:50;99672.10;;;23.07;27.81
64614;BME280;51025;37.772;-122.432;2022-09-09T12:19:21;99674.54;;;23.90;27.73
64614;BME280;51025;37.772;-122.432;2022-09-09T12:21:57;99678.18;;;23.46;27.77
64614;BME280;51025;37.772;-122.432;2022-09-09T12:24:34;99680.96;;;24.22;27.49
64614;BME280;51025;37.772;-122.432;2022-09-09T12:27:10;99686.18;;;23.87;27.41
64614;BME280;51025;37.772;-122.432;2022-09-09T12:29:47;99682.07;;;23.12;27.72
64614;BME280;51025;37.772;-122.432;2022-09-09T12:32:23;99676.58;;;23.82;27.77
64614;BME280;51025;37.772;-122.432;2022-09-09T12:34:55;99673.36;;;23.12;27.72
64614;BME280;51025;37.772;-122.432;2022-09-09T12:37:29;99671.49;;;23.64;27.88
64614;BME280;51025;37.772;-122.432;2022-09-09T12:40:03;99669.95;;;23.39;27.77
64614;BME280;51025;37.772;-122.432;2022-09-09T12:42:33;99670.70;;;24.21;27.40
64614;BME280;51025;37.772;-122.432;2022-09-09T12:45:02;99666.09;;;23.57;27.59
64614;BME280;51025;37.772;-122.432;2022-09-09T12:47:38;99667.05;;;23.96;27.60
64614;BME280;51025;37.772;-122.432;2022-09-09T12:50:17;99664.28;;;22.99;27.74
64614;BME280;51025;37.772;-122.432;2022-09-09T12:52:48;99660.31;;;22.42;27.54
64614;BME280;51025;37.772;-122.432;2022-09-09T12:55:21;99657.62;;;24.13;27.39
64614;BME280;51025;37.772;-122.432;2022-09-09T12:57:50;99655.54;;;23.17;27.54
64614;BME280;51025;37.772;-122.432;2022-09-09T13:00:21;99649.36;;;23.94;27.51